Time;durP1;ratioP1;P1;durP2;ratioP2;P2;SDS_P1;SDS_P2;PMS_P1;PMS_P2;Temp;Humidity;BMP_temperature;BMP_pressure;BME280_temperature;BME280_humidity;BME280_pressure;Samples;Min_cycle;Max_cycle;Signal;HPM_P1;HPM_P2
2022/05/21 00:00:21;;;;;;;;;;;;;;;17.11;75.24;97319.88;30001;983;1877;-56
2022/05/21 00:00:52;;;;;;;;;;;;;;;17.12;74.20;97318.75;30001;983;1881;-58
2022/05/21 00:01:23;;;;;;;;;;;;;;;17.12;74.35;97321.47;30001;983;1877;-58
2022/05/21 00:01:54;;;;;;;;;;;;;;;17.07;74.94;97318.91;30001;983;1881;-56
2022/05/21 00:02:25;;;;;;;;;;;;;;;17.03;74.96;97321.50;30001;983;1877;-58
2022/05/21 00:02:56;;;;;;;;;;;;;;;17.04;75.32;97327.78;30001;983;1788;-56
2022/05/21 00:03:27;;;;;;;;;;;;;;;17.05;74.75;97315.69;30001;983;1864;-56
2022/05/21 00:03:59;;;;;;;;;;;;;;;17.03;75.64;97323.41;30001;983;1873;-56
2022/05/21 00:04:31;;;;;;;;;;;;;;;16.99;75.14;97322.44;30001;982;1877;-56
2022/05/21 00:05:01;;;;;;;;;;;;;;;16.96;75.54;97312.97;30001;982;1881;-55
2022/05/21 00:05:33;;;;;;;;;;;;;;;16.93;76.85;97330.06;30001;982;1877;-56
2022/05/21 00:06:04;;;;;;;;;;;;;;;16.88;77.55;97323.94;30001;982;1869;-57
2022/05/21 00:06:35;;;;;;;;;;;;;;;16.84;77.62;97322.97;30001;982;1869;-56
2022/05/21 00:07:06;;;;;;;;;;;;;;;16.84;77.82;97320.22;30001;982;1761;-55
2022/05/21 00:07:38;;;;;;;;;;;;;;;16.86;75.68;97317.97;30001;982;1869;-56
2022/05/21 00:08:09;;;;;;;;;;;;;;;16.83;75.69;97324.09;30001;983;1881;-57
2022/05/21 00:08:40;;;;;;;;;;;;;;;16.80;75.57;97324.72;30001;983;1877;-58
2022/05/21 00:09:11;;;;;;;;;;;;;;;16.77;76.29;97325.37;30001;983;1881;-57
2022/05/21 00:09:41;;;;;;;;;;;;;;;16.84;75.58;97326.50;30001;983;1877;-57
2022/05/21 00:10:14;;;;;;;;;;;;;;;16.84;75.69;97328.44;30001;983;1881;-57
2022/05/21 00:10:45;;;;;;;;;;;;;;;16.82;75.72;97326.03;30001;983;1877;-55
2022/05/21 00:11:16;;;;;;;;;;;;;;;16.84;75.64;97320.22;30001;983;1882;-57
2022/05/21 00:11:47;;;;;;;;;;;;;;;16.82;75.50;97326.03;30001;968;1879;-56
2022/05/21 00:12:17;;;;;;;;;;;;;;;16.83;75.97;97329.56;30001;982;1873;-54
2022/05/21 00:12:49;;;;;;;;;;;;;;;16.81;75.53;97331.81;30001;982;1877;-57
2022/05/21 00:13:20;;;;;;;;;;;;;;;16.77;75.77;97331.66;30001;982;1869;-57
2022/05/21 00:13:52;;;;;;;;;;;;;;;16.74;75.88;97330.38;30001;982;1869;-56
2022/05/21 00:14:23;;;;;;;;;;;;;;;16.71;76.58;97322.78;30001;982;1882;-56
2022/05/21 00:14:55;;;;;;;;;;;;;;;16.68;76.43;97328.91;30001;983;1876;-55
2022/05/21 00:15:27;;;;;;;;;;;;;;;16.67;76.71;97335.50;30001;983;1881;-56
2022/05/21 00:15:57;;;;;;;;;;;;;;;16.65;77.42;97329.53;30001;983;1877;-56
2022/05/21 00:16:29;;;;;;;;;;;;;;;16.62;77.01;97324.72;30001;983;1881;-57
2022/05/21 00:17:01;;;;;;;;;;;;;;;16.60;77.09;97326.97;30001;977;1896;-58
2022/05/21 00:17:31;;;;;;;;;;;;;;;16.60;77.11;97337.12;30001;983;1868;-57
2022/05/21 00:18:03;;;;;;;;;;;;;;;16.59;77.36;97330.03;30001;983;1868;-56
2022/05/21 00:18:34;;;;;;;;;;;;;;;16.59;77.07;97336.31;30001;983;1868;-56
2022/05/21 00:19:06;;;;;;;;;;;;;;;16.60;76.79;97334.37;30001;983;1855;-57
2022/05/21 00:19:36;;;;;;;;;;;;;;;16.58;76.63;97334.69;30001;982;1881;-58
2022/05/21 00:20:47;;;;;;;;;;;;;;;16.57;76.75;97332.28;30001;982;1877;-57
2022/05/21 00:20:59;;;;;;;;;;;;;;;16.59;76.45;97335.50;30001;982;1869;-57
2022/05/21 00:21:30;;;;;;;;;;;;;;;16.60;76.17;97337.12;30001;986;1869;-56
2022/05/21 00:22:01;;;;;;;;;;;;;;;16.60;76.04;97337.91;30001;983;1881;-58
2022/05/21 00:22:32;;;;;;;;;;;;;;;16.62;75.82;97338.41;30001;983;1876;-57
2022/05/21 00:23:14;;;;;;;;;;;;;;;16.62;75.51;97335.66;30001;983;1881;-57
2022/05/21 00:23:45;;;;;;;;;;;;;;;16.59;76.07;97335.50;30001;983;1877;-57
2022/05/21 00:24:16;;;;;;;;;;;;;;;16.58;76.23;97331.94;30001;963;1903;-57
2022/05/21 00:24:47;;;;;;;;;;;;;;;16.57;75.73;97338.56;30001;983;1864;-55
2022/05/21 00:25:19;;;;;;;;;;;;;;;16.59;75.83;97336.31;30001;983;1873;-57
2022/05/21 00:25:57;;;;;;;;;;;;;;;16.59;75.45;97332.75;30001;979;1888;-56
2022/05/21 00:26:28;;;;;;;;;;;;;;;16.56;76.11;97336.94;30001;983;1882;-57
2022/05/21 00:26:59;;;;;;;;;;;;;;;16.52;76.24;97333.22;30001;983;1877;-56
2022/05/21 00:27:30;;;;;;;;;;;;;;;16.52;76.41;97329.69;30001;982;1881;-57
2022/05/21 00:28:00;;;;;;;;;;;;;;;16.51;76.22;97334.34;30001;982;1864;-58
2022/05/21 00:28:32;;;;;;;;;;;;;;;16.48;75.99;97329.50;30001;982;1873;-57
2022/05/21 00:29:03;;;;;;;;;;;;;;;16.47;76.24;97335.31;30001;982;1878;-57
2022/05/21 00:29:35;;;;;;;;;;;;;;;16.46;75.92;97336.44;30001;983;1881;-57
2022/05/21 00:30:06;;;;;;;;;;;;;;;16.46;76.38;97334.50;30001;983;1877;-56
2022/05/21 00:30:37;;;;;;;;;;;;;;;16.47;76.08;97332.56;30001;983;1881;-56
2022/05/21 00:31:09;;;;;;;;;;;;;;;16.47;76.23;97333.37;30001;983;1877;-57
2022/05/21 00:31:40;;;;;;;;;;;;;;;16.47;76.13;97333.37;30001;983;1881;-57
2022/05/21 00:32:12;;;;;;;;;;;;;;;16.51;75.91;97337.09;30001;983;1864;-57
2022/05/21 00:32:46;;;;;;;;;;;;;;;16.52;75.57;97333.22;30001;983;1873;-57
2022/05/21 00:33:17;;;;;;;;;;;;;;;16.51;75.52;97339.84;30001;983;1877;-57
2022/05/21 00:33:48;;;;;;;;;;;;;;;16.52;75.70;97341.44;30001;983;1869;-58
2022/05/21 00:34:19;;;;;;;;;;;;;;;16.52;75.77;97346.94;30001;983;1869;-56
2022/05/21 00:34:50;;;;;;;;;;;;;;;16.50;75.35;97343.69;30001;982;1882;-56
2022/05/21 00:35:21;;;;;;;;;;;;;;;16.51;75.87;97339.03;30001;982;1877;-57
2022/05/21 00:35:52;;;;;;;;;;;;;;;16.47;75.56;97338.84;30001;982;1882;-56
2022/05/21 00:36:24;;;;;;;;;;;;;;;16.45;75.97;97341.09;30001;982;1877;-55
2022/05/21 00:36:55;;;;;;;;;;;;;;;16.40;75.89;97341.25;30001;982;1882;-56
2022/05/21 00:37:26;;;;;;;;;;;;;;;16.39;75.98;97336.91;30001;983;1877;-56
2022/05/21 00:37:57;;;;;;;;;;;;;;;16.38;75.94;97338.03;30001;983;1881;-59
2022/05/21 00:38:28;;;;;;;;;;;;;;;16.37;75.99;97344.62;30001;983;1877;-55
2022/05/21 00:38:59;;;;;;;;;;;;;;;16.36;76.18;97346.56;30001;983;1868;-58
2022/05/21 00:39:30;;;;;;;;;;;;;;;16.35;76.19;97342.22;30001;983;1868;-57
2022/05/21 00:40:02;;;;;;;;;;;;;;;16.38;75.63;97348.97;30001;983;1881;-56
2022/05/21 00:40:33;;;;;;;;;;;;;;;16.35;75.83;97342.22;30001;983;1877;-57
2022/05/21 00:41:05;;;;;;;;;;;;;;;16.36;75.62;97343.00;30001;983;1882;-57
2022/05/21 00:41:36;;;;;;;;;;;;;;;16.33;75.66;97349.13;30001;983;1864;-56
2022/05/21 00:42:08;;;;;;;;;;;;;;;16.31;76.31;97345.91;30001;983;1873;-57
2022/05/21 00:42:43;;;;;;;;;;;;;;;16.28;76.41;97352.03;30001;986;1868;-55
2022/05/21 00:43:32;;;;;;;;;;;;;;;16.26;76.78;97351.56;30001;982;1787;-56
2022/05/21 00:44:03;;;;;;;;;;;;;;;16.24;76.65;97351.88;30001;982;1869;-56
2022/05/21 00:44:34;;;;;;;;;;;;;;;16.23;76.91;97350.25;30001;982;1882;-56
2022/05/21 00:45:05;;;;;;;;;;;;;;;16.23;76.45;97350.25;30001;983;1863;-57
2022/05/21 00:45:36;;;;;;;;;;;;;;;16.20;76.69;97350.88;30001;983;1872;-57
2022/05/21 00:46:27;;;;;;;;;;;;;;;16.20;77.01;97352.81;30001;983;1877;-56
2022/05/21 00:46:58;;;;;;;;;;;;;;;16.24;76.64;97345.59;30001;983;1877;-57
2022/05/21 00:47:28;;;;;;;;;;;;;;;16.23;76.32;97343.97;30001;983;1877;-56
2022/05/21 00:47:59;;;;;;;;;;;;;;;16.20;76.53;97350.88;30001;983;1881;-56
2022/05/21 00:48:30;;;;;;;;;;;;;;;16.22;76.41;97347.84;30001;983;1877;-57
2022/05/21 00:49:05;;;;;;;;;;;;;;;16.25;75.93;97347.19;30001;982;1882;-55
2022/05/21 00:49:36;;;;;;;;;;;;;;;16.26;76.43;97348.81;30001;982;1877;-56
2022/05/21 00:50:09;;;;;;;;;;;;;;;16.24;76.23;97348.31;30001;982;1869;-55
2022/05/21 00:50:40;;;;;;;;;;;;;;;16.22;76.38;97343.16;30001;982;1869;-56
2022/05/21 00:51:13;;;;;;;;;;;;;;;16.21;76.07;97355.25;30001;982;1882;-56
2022/05/21 00:51:48;;;;;;;;;;;;;;;16.22;76.65;97354.13;30001;982;1878;-56
2022/05/21 00:52:24;;;;;;;;;;;;;;;16.27;74.87;97353.16;30001;983;1881;-56
2022/05/21 00:52:56;;;;;;;;;;;;;;;16.27;74.91;97348.50;30001;983;1877;-55
2022/05/21 00:53:28;;;;;;;;;;;;;;;16.26;74.94;97349.63;30001;983;1881;-56
2022/05/21 00:54:01;;;;;;;;;;;;;;;16.24;75.31;97351.06;30001;983;1877;-55
2022/05/21 00:54:35;;;;;;;;;;;;;;;16.24;75.31;97351.88;30001;983;1881;-55
2022/05/21 00:55:12;;;;;;;;;;;;;;;16.24;74.84;97351.06;30001;983;1754;-57
2022/05/21 00:55:44;;;;;;;;;;;;;;;16.21;75.27;97349.75;30001;983;1873;-56
2022/05/21 00:56:16;;;;;;;;;;;;;;;16.22;75.51;97356.03;30001;983;1877;-56
2022/05/21 00:56:50;;;;;;;;;;;;;;;16.23;74.96;97357.66;30001;982;1881;-56
2022/05/21 00:57:36;;;;;;;;;;;;;;;16.21;75.17;97346.22;30001;982;1877;-57
2022/05/21 00:59:52;;;;;;;;;;;;;;;16.13;75.21;97349.72;30001;983;1881;-56
2022/05/21 01:00:25;;;;;;;;;;;;;;;16.09;75.39;97350.34;30001;983;1864;-58
2022/05/21 01:00:56;;;;;;;;;;;;;;;16.09;75.57;97344.88;30001;983;1872;-56
2022/05/21 01:01:30;;;;;;;;;;;;;;;16.17;74.98;97347.97;30001;983;1877;-57
2022/05/21 01:02:03;;;;;;;;;;;;;;;16.19;73.91;97349.28;30001;973;1886;-55
2022/05/21 01:02:37;;;;;;;;;;;;;;;16.17;74.20;97345.22;30001;983;1868;-57
2022/05/21 01:03:10;;;;;;;;;;;;;;;16.16;74.58;97349.09;30001;983;1882;-56
2022/05/21 01:03:43;;;;;;;;;;;;;;;16.13;74.98;97350.53;30001;983;1877;-58
2022/05/21 01:04:14;;;;;;;;;;;;;;;16.13;74.67;97341.50;30001;982;1881;-57
2022/05/21 01:04:50;;;;;;;;;;;;;;;16.11;74.75;97349.25;30001;982;1864;-57
2022/05/21 01:05:23;;;;;;;;;;;;;;;16.09;74.81;97355.84;30001;982;1873;-56
2022/05/21 01:05:54;;;;;;;;;;;;;;;16.03;75.03;97351.63;30001;982;1877;-56
2022/05/21 01:06:25;;;;;;;;;;;;;;;16.01;74.95;97351.13;30001;982;1882;-57
2022/05/21 01:06:56;;;;;;;;;;;;;;;15.99;75.18;97350.63;30001;982;1878;-57
2022/05/21 01:07:28;;;;;;;;;;;;;;;15.97;75.29;97352.06;30001;983;1881;-57
2022/05/21 01:08:01;;;;;;;;;;;;;;;16.03;74.88;97357.09;30001;983;1864;-56
2022/05/21 01:08:32;;;;;;;;;;;;;;;16.02;74.74;97352.75;30001;983;1872;-58
2022/05/21 01:09:03;;;;;;;;;;;;;;;16.00;75.08;97346.78;30001;983;1877;-56
2022/05/21 01:09:35;;;;;;;;;;;;;;;16.00;74.92;97355.00;30001;983;1881;-57
2022/05/21 01:10:07;;;;;;;;;;;;;;;15.97;74.63;97352.88;30001;983;1877;-56
2022/05/21 01:10:40;;;;;;;;;;;;;;;15.92;75.02;97361.25;30001;983;1881;-57
2022/05/21 01:11:13;;;;;;;;;;;;;;;15.95;75.03;97359.78;30001;983;1864;-57
2022/05/21 01:11:44;;;;;;;;;;;;;;;15.99;74.38;97355.31;30001;982;1873;-56
2022/05/21 01:12:15;;;;;;;;;;;;;;;16.00;74.15;97357.72;30001;982;1877;-56
2022/05/21 01:12:48;;;;;;;;;;;;;;;15.99;74.38;97356.13;30001;982;1882;-57
2022/05/21 01:13:23;;;;;;;;;;;;;;;16.04;73.97;97358.72;30001;982;1877;-57
2022/05/21 01:13:57;;;;;;;;;;;;;;;16.10;73.16;97356.66;30001;982;1869;-57
2022/05/21 01:14:29;;;;;;;;;;;;;;;16.08;73.39;97356.97;30001;982;1869;-57
2022/05/21 01:15:01;;;;;;;;;;;;;;;16.06;73.56;97356.47;30001;983;1881;-56
2022/05/21 01:15:35;;;;;;;;;;;;;;;16.03;73.54;97354.34;30001;983;1877;-56
2022/05/21 01:16:06;;;;;;;;;;;;;;;16.00;73.43;97360.47;30001;983;1881;-57
2022/05/21 01:16:37;;;;;;;;;;;;;;;15.93;74.05;97356.59;30001;983;1877;-58
2022/05/21 01:17:08;;;;;;;;;;;;;;;15.93;74.00;97368.34;30001;983;1868;-54
2022/05/21 01:17:39;;;;;;;;;;;;;;;15.98;72.98;97365.44;30001;983;1868;-55
2022/05/21 01:18:11;;;;;;;;;;;;;;;16.00;72.75;97365.94;30001;983;1881;-55
2022/05/21 01:18:42;;;;;;;;;;;;;;;15.97;72.98;97363.03;30001;983;1864;-57
2022/05/21 01:19:13;;;;;;;;;;;;;;;15.95;73.50;97359.78;30001;982;1873;-58
2022/05/21 01:20:00;;;;;;;;;;;;;;;15.89;73.63;97367.38;30001;982;1877;-57
2022/05/21 01:20:39;;;;;;;;;;;;;;;15.94;73.48;97363.69;30001;982;1882;-57
2022/05/21 01:21:10;;;;;;;;;;;;;;;15.88;73.70;97368.47;30001;982;1878;-57
2022/05/21 01:21:41;;;;;;;;;;;;;;;15.88;73.78;97365.75;30001;983;1881;-55
2022/05/21 01:22:11;;;;;;;;;;;;;;;15.83;73.49;97363.16;30001;983;1876;-56
2022/05/21 01:22:44;;;;;;;;;;;;;;;15.78;73.89;97368.75;30001;983;1881;-57
2022/05/21 01:23:17;;;;;;;;;;;;;;;15.75;73.94;97363.91;30001;983;1877;-57
2022/05/21 01:23:48;;;;;;;;;;;;;;;15.71;74.41;97360.19;30001;983;1868;-56
2022/05/21 01:24:19;;;;;;;;;;;;;;;15.68;74.62;97366.28;30001;983;1868;-56
2022/05/21 01:24:50;;;;;;;;;;;;;;;15.68;74.82;97366.28;30001;983;1881;-56
2022/05/21 01:25:22;;;;;;;;;;;;;;;15.65;75.21;97366.91;30001;983;1877;-57
2022/05/21 01:25:54;;;;;;;;;;;;;;;15.67;74.88;97365.47;30001;983;1881;-56
2022/05/21 01:26:26;;;;;;;;;;;;;;;15.67;75.19;97370.13;30001;983;1877;-56
2022/05/21 01:26:58;;;;;;;;;;;;;;;15.72;74.48;97361.78;30001;982;1881;-57
2022/05/21 01:27:29;;;;;;;;;;;;;;;15.75;74.18;97366.63;30001;982;1877;-57
2022/05/21 01:27:59;;;;;;;;;;;;;;;15.76;74.19;97365.53;30001;982;1882;-57
2022/05/21 01:28:32;;;;;;;;;;;;;;;15.73;74.33;97366.16;30001;960;1902;-56
2022/05/21 01:29:04;;;;;;;;;;;;;;;15.73;74.86;97366.94;30001;982;1869;-57
2022/05/21 01:29:38;;;;;;;;;;;;;;;15.75;74.44;97367.44;30001;983;1868;-56
2022/05/21 01:30:11;;;;;;;;;;;;;;;15.72;74.14;97370.81;30001;983;1881;-57
2022/05/21 01:30:46;;;;;;;;;;;;;;;15.68;74.15;97366.28;30001;983;1877;-57
2022/05/21 01:31:18;;;;;;;;;;;;;;;15.64;74.33;97371.56;30001;983;1881;-57
2022/05/21 01:31:50;;;;;;;;;;;;;;;15.60;74.92;97369.75;30001;983;1877;-56
2022/05/21 01:32:21;;;;;;;;;;;;;;;15.58;74.96;97366.56;30001;983;1881;-55
2022/05/21 01:32:52;;;;;;;;;;;;;;;15.56;74.81;97374.25;30001;983;1877;-55
2022/05/21 01:33:24;;;;;;;;;;;;;;;15.54;74.79;97374.56;30001;983;1881;-57
2022/05/21 01:33:55;;;;;;;;;;;;;;;15.51;75.66;97372.44;30001;983;1877;-56
2022/05/21 01:34:27;;;;;;;;;;;;;;;15.51;75.55;97366.97;30001;982;1869;-57
2022/05/21 01:34:58;;;;;;;;;;;;;;;15.54;74.90;97377.28;30001;982;1869;-57
2022/05/21 01:35:30;;;;;;;;;;;;;;;15.52;74.31;97374.06;30001;982;1882;-57
2022/05/21 01:36:01;;;;;;;;;;;;;;;15.50;74.76;97376.28;30001;982;1878;-57
2022/05/21 01:36:32;;;;;;;;;;;;;;;15.55;74.21;97378.09;30001;982;1882;-57
2022/05/21 01:37:03;;;;;;;;;;;;;;;15.53;74.18;97380.34;30001;983;1876;-57
2022/05/21 01:37:34;;;;;;;;;;;;;;;15.51;74.58;97372.44;30001;983;1881;-57
2022/05/21 01:38:06;;;;;;;;;;;;;;;15.47;74.92;97376.12;30001;983;1877;-57
2022/05/21 01:38:37;;;;;;;;;;;;;;;15.43;74.76;97378.66;30001;983;1881;-57
2022/05/21 01:39:08;;;;;;;;;;;;;;;15.40;75.00;97371.87;30001;983;1877;-57
2022/05/21 01:39:39;;;;;;;;;;;;;;;15.37;75.25;97377.16;30001;983;1868;-56
2022/05/21 01:40:10;;;;;;;;;;;;;;;15.35;75.28;97385.69;30001;983;1868;-57
2022/05/21 01:40:41;;;;;;;;;;;;;;;15.32;75.43;97380.84;30001;983;1881;-57
2022/05/21 01:41:12;;;;;;;;;;;;;;;15.30;75.61;97387.72;30001;983;1877;-57
2022/05/21 01:41:44;;;;;;;;;;;;;;;15.27;76.00;97382.88;30001;982;1882;-57
2022/05/21 01:42:15;;;;;;;;;;;;;;;15.23;76.73;97382.72;30001;982;1877;-57
2022/05/21 01:44:37;;;;;;;;;;;;;;;15.19;76.51;97381.72;30001;982;1882;-57
2022/05/21 01:44:39;;;;;;;;;;;;;;;15.12;77.14;97381.34;30001;983;1843;-56
2022/05/21 01:45:10;;;;;;;;;;;;;;;15.10;77.70;97389.03;30001;983;1863;-57
2022/05/21 01:45:42;;;;;;;;;;;;;;;15.09;77.60;97387.44;30001;983;1872;-57
2022/05/21 01:46:13;;;;;;;;;;;;;;;15.07;78.00;97389.66;30001;983;1877;-57
2022/05/21 01:46:44;;;;;;;;;;;;;;;15.04;77.92;97391.09;30001;983;1881;-57
2022/05/21 01:47:15;;;;;;;;;;;;;;;15.04;79.27;97393.81;30001;983;1877;-58
2022/05/21 01:47:46;;;;;;;;;;;;;;;15.01;79.45;97396.34;30001;983;1881;-56
2022/05/21 01:48:20;;;;;;;;;;;;;;;14.96;79.83;97396.47;30001;983;1877;-57
2022/05/21 01:48:52;;;;;;;;;;;;;;;14.94;79.84;97390.50;30001;983;1882;-57
2022/05/21 01:49:22;;;;;;;;;;;;;;;14.91;79.62;97400.13;30001;982;1877;-56
2022/05/21 01:49:53;;;;;;;;;;;;;;;14.89;79.61;97396.13;30001;982;1869;-57
2022/05/21 01:50:24;;;;;;;;;;;;;;;14.87;79.44;97401.87;30001;982;1869;-57
2022/05/21 01:50:55;;;;;;;;;;;;;;;14.85;79.08;97400.56;30001;982;1882;-57
2022/05/21 01:51:26;;;;;;;;;;;;;;;14.83;79.15;97389.94;30001;982;1877;-57
2022/05/21 01:51:57;;;;;;;;;;;;;;;14.86;78.88;97396.72;30001;983;1881;-56
2022/05/21 01:52:28;;;;;;;;;;;;;;;14.86;78.44;97394.00;30001;983;1877;-57
2022/05/21 01:52:59;;;;;;;;;;;;;;;14.86;78.37;97404.91;30001;983;1881;-57
2022/05/21 01:53:29;;;;;;;;;;;;;;;14.86;78.80;97400.25;30001;983;1877;-58
2022/05/21 01:54:00;;;;;;;;;;;;;;;14.86;79.71;97402.19;30001;983;1868;-58
2022/05/21 01:54:32;;;;;;;;;;;;;;;14.82;79.42;97399.25;30001;983;1868;-57
2022/05/21 01:55:03;;;;;;;;;;;;;;;14.80;80.04;97400.69;30001;983;1881;-58
2022/05/21 01:55:34;;;;;;;;;;;;;;;14.77;81.15;97401.28;30001;983;1877;-57
2022/05/21 01:56:05;;;;;;;;;;;;;;;14.73;81.25;97399.16;30001;982;1882;-57
2022/05/21 01:56:36;;;;;;;;;;;;;;;14.70;81.12;97407.16;30001;982;1877;-57
2022/05/21 01:57:09;;;;;;;;;;;;;;;14.68;81.45;97404.75;30001;982;1882;-57
2022/05/21 01:57:40;;;;;;;;;;;;;;;14.66;80.93;97406.16;30001;982;1878;-56
2022/05/21 01:58:11;;;;;;;;;;;;;;;14.64;81.03;97411.94;30001;986;1882;-57
2022/05/21 01:58:42;;;;;;;;;;;;;;;14.62;81.20;97411.44;30001;982;1878;-57
2022/05/21 01:59:13;;;;;;;;;;;;;;;14.61;80.86;97415.28;30001;982;1869;-57
2022/05/21 01:59:44;;;;;;;;;;;;;;;14.60;80.67;97415.56;30001;983;1868;-56
2022/05/21 02:00:15;;;;;;;;;;;;;;;14.57;80.93;97408.81;30001;983;1881;-56
2022/05/21 02:00:46;;;;;;;;;;;;;;;14.56;80.87;97409.09;30001;983;1877;-56
2022/05/21 02:01:17;;;;;;;;;;;;;;;14.60;80.88;97413.66;30001;983;1881;-57
2022/05/21 02:01:48;;;;;;;;;;;;;;;14.61;80.07;97415.28;30001;983;1877;-57
2022/05/21 02:02:20;;;;;;;;;;;;;;;14.62;79.65;97414.16;30001;983;1881;-57
2022/05/21 02:02:50;;;;;;;;;;;;;;;14.64;79.48;97413.84;30001;983;1877;-57
2022/05/21 02:03:22;;;;;;;;;;;;;;;14.64;79.22;97413.84;30001;983;1881;-58
2022/05/21 02:03:52;;;;;;;;;;;;;;;14.63;79.43;97413.03;30001;982;1877;-57
2022/05/21 02:04:23;;;;;;;;;;;;;;;14.62;79.69;97416.87;30001;982;1869;-58
2022/05/21 02:04:55;;;;;;;;;;;;;;;14.60;80.62;97413.66;30001;982;1868;-57
2022/05/21 02:05:26;;;;;;;;;;;;;;;14.59;80.59;97416.69;30001;969;1903;-57
2022/05/21 02:05:57;;;;;;;;;;;;;;;14.54;81.43;97409.44;30001;982;1877;-58
2022/05/21 02:06:28;;;;;;;;;;;;;;;14.51;81.12;97418.25;30001;982;1882;-57
2022/05/21 02:06:59;;;;;;;;;;;;;;;14.50;81.25;97419.34;30001;983;1877;-58
2022/05/21 02:07:29;;;;;;;;;;;;;;;14.45;81.21;97416.72;30001;983;1881;-57
2022/05/21 02:08:00;;;;;;;;;;;;;;;14.45;81.82;97422.19;30001;983;1877;-56
2022/05/21 02:08:31;;;;;;;;;;;;;;;14.43;81.73;97418.94;30001;966;1907;-57
2022/05/21 02:09:03;;;;;;;;;;;;;;;14.43;81.82;97418.13;30001;983;1877;-56
2022/05/21 02:09:34;;;;;;;;;;;;;;;14.39;81.68;97421.44;30001;983;1868;-56
2022/05/21 02:10:06;;;;;;;;;;;;;;;14.36;82.18;97424.78;30001;983;1868;-57
2022/05/21 02:10:36;;;;;;;;;;;;;;;14.35;82.19;97416.91;30001;983;1882;-57
2022/05/21 02:11:07;;;;;;;;;;;;;;;14.33;82.28;97419.13;30001;982;1877;-58
2022/05/21 02:11:38;;;;;;;;;;;;;;;14.29;82.35;97418.91;30001;982;1881;-57
2022/05/21 02:12:14;;;;;;;;;;;;;;;14.28;82.43;97421.94;30001;982;1877;-57
2022/05/21 02:12:45;;;;;;;;;;;;;;;14.24;82.45;97420.94;30001;982;1882;-56
2022/05/21 02:13:29;;;;;;;;;;;;;;;14.19;83.14;97426.50;30001;982;1877;-57
2022/05/21 02:14:00;;;;;;;;;;;;;;;14.12;83.50;97434.28;30001;982;1882;-57
2022/05/21 02:14:31;;;;;;;;;;;;;;;14.11;83.23;97433.47;30001;983;1863;-57
2022/05/21 02:15:02;;;;;;;;;;;;;;;14.09;83.73;97436.50;30001;983;1872;-57
2022/05/21 02:15:33;;;;;;;;;;;;;;;14.08;83.48;97429.44;30001;983;1877;-57
2022/05/21 02:16:04;;;;;;;;;;;;;;;14.07;83.45;97427.81;30001;983;1881;-58
2022/05/21 02:16:36;;;;;;;;;;;;;;;14.05;83.81;97440.94;30001;983;1877;-57
2022/05/21 02:17:07;;;;;;;;;;;;;;;14.03;84.06;97431.44;30001;983;1881;-56
2022/05/21 02:17:39;;;;;;;;;;;;;;;14.01;83.99;97431.75;30001;983;1877;-58
2022/05/21 02:18:10;;;;;;;;;;;;;;;14.00;84.21;97432.84;30001;983;1882;-58
2022/05/21 02:18:41;;;;;;;;;;;;;;;13.98;84.59;97435.06;30001;982;1877;-56
2022/05/21 02:19:12;;;;;;;;;;;;;;;13.98;84.40;97439.72;30001;982;1869;-57
2022/05/21 02:19:43;;;;;;;;;;;;;;;13.95;84.85;97434.88;30001;982;1869;-56
2022/05/21 02:20:13;;;;;;;;;;;;;;;13.91;84.94;97434.66;30001;982;1786;-57
2022/05/21 02:20:46;;;;;;;;;;;;;;;13.90;85.29;97433.03;30001;982;1877;-57
2022/05/21 02:21:18;;;;;;;;;;;;;;;13.87;84.94;97439.09;30001;982;1882;-57
2022/05/21 02:21:49;;;;;;;;;;;;;;;13.83;85.11;97438.09;30001;982;1865;-57
2022/05/21 02:22:20;;;;;;;;;;;;;;;13.81;85.20;97429.41;30001;983;1859;-57
2022/05/21 02:22:51;;;;;;;;;;;;;;;13.79;85.03;97439.00;30001;983;1877;-57
2022/05/21 02:23:22;;;;;;;;;;;;;;;13.78;85.09;97440.09;30001;983;1881;-57
2022/05/21 02:23:53;;;;;;;;;;;;;;;13.77;85.15;97436.56;30001;983;1877;-57
2022/05/21 02:24:24;;;;;;;;;;;;;;;13.75;85.33;97438.78;30001;983;1881;-57
2022/05/21 02:24:55;;;;;;;;;;;;;;;13.75;85.04;97438.78;30001;983;1877;-57
2022/05/21 02:25:25;;;;;;;;;;;;;;;13.75;84.92;97436.06;30001;983;1882;-57
2022/05/21 02:25:57;;;;;;;;;;;;;;;13.76;85.37;97437.69;30001;983;1877;-55
2022/05/21 02:26:28;;;;;;;;;;;;;;;13.76;84.53;97437.69;30001;982;1869;-57
2022/05/21 02:26:59;;;;;;;;;;;;;;;13.78;84.66;97437.38;30001;982;1868;-56
2022/05/21 02:27:30;;;;;;;;;;;;;;;13.75;83.92;97436.88;30001;982;1882;-57
2022/05/21 02:28:01;;;;;;;;;;;;;;;13.76;83.29;97432.22;30001;982;1878;-56
2022/05/21 02:28:31;;;;;;;;;;;;;;;13.75;83.44;97431.41;30001;982;1882;-57
2022/05/21 02:29:03;;;;;;;;;;;;;;;13.78;83.25;97440.91;30001;983;1877;-57
2022/05/21 02:29:34;;;;;;;;;;;;;;;13.77;83.30;97442.03;30001;983;1881;-57
2022/05/21 02:30:05;;;;;;;;;;;;;;;13.80;83.42;97443.34;30001;983;1877;-57
2022/05/21 02:30:36;;;;;;;;;;;;;;;13.79;84.20;97436.28;30001;983;1881;-57
2022/05/21 02:31:07;;;;;;;;;;;;;;;13.77;84.23;97442.03;30001;983;1864;-57
2022/05/21 02:31:38;;;;;;;;;;;;;;;13.77;84.10;97442.03;30001;983;1873;-56
2022/05/21 02:32:11;;;;;;;;;;;;;;;13.78;83.51;97440.91;30001;983;1877;-55
2022/05/21 02:32:42;;;;;;;;;;;;;;;13.78;83.98;97449.09;30001;983;1882;-56
2022/05/21 02:33:13;;;;;;;;;;;;;;;13.74;83.86;97446.16;30001;983;1877;-58
2022/05/21 02:33:45;;;;;;;;;;;;;;;13.72;83.88;97442.09;30001;982;1881;-57
2022/05/21 02:34:16;;;;;;;;;;;;;;;13.70;83.85;97445.13;30001;982;1877;-57
2022/05/21 02:34:47;;;;;;;;;;;;;;;13.65;83.96;97441.69;30001;982;1882;-57
2022/05/21 02:35:18;;;;;;;;;;;;;;;13.64;84.00;97445.50;30001;982;1864;-56
2022/05/21 02:35:48;;;;;;;;;;;;;;;13.64;84.18;97440.06;30001;982;1860;-57
2022/05/21 02:39:25;;;;;;;;;;;;;;;13.63;84.10;97444.69;30001;983;1876;-57
2022/05/21 02:39:36;;;;;;;;;;;;;;;13.63;83.58;97457.53;30001;983;1868;-56
2022/05/21 02:40:08;;;;;;;;;;;;;;;13.63;83.95;97452.06;30001;983;1882;-58
2022/05/21 02:40:39;;;;;;;;;;;;;;;13.63;84.27;97449.34;30001;983;1877;-56
2022/05/21 02:41:13;;;;;;;;;;;;;;;13.63;84.17;97443.88;30001;983;1881;-57
2022/05/21 02:41:45;;;;;;;;;;;;;;;13.62;84.09;97454.00;30001;982;1877;-57
2022/05/21 02:43:05;;;;;;;;;;;;;;;13.58;85.23;97457.59;30001;982;1864;-57
2022/05/21 02:43:36;;;;;;;;;;;;;;;13.57;84.59;97450.53;30001;982;1873;-57
2022/05/21 02:44:08;;;;;;;;;;;;;;;13.56;84.68;97452.44;30001;983;1877;-57
2022/05/21 02:44:40;;;;;;;;;;;;;;;13.55;84.63;97448.09;30001;983;1868;-57
2022/05/21 02:45:13;;;;;;;;;;;;;;;13.54;84.63;97451.94;30001;983;1868;-58
2022/05/21 02:45:44;;;;;;;;;;;;;;;13.54;84.76;97449.22;30001;983;1881;-58
2022/05/21 02:46:15;;;;;;;;;;;;;;;13.52;84.93;97453.34;30001;983;1864;-57
2022/05/21 02:46:46;;;;;;;;;;;;;;;13.50;84.97;97444.69;30001;983;1873;-56
2022/05/21 02:47:17;;;;;;;;;;;;;;;13.50;84.42;97447.41;30001;983;1877;-57
2022/05/21 02:47:48;;;;;;;;;;;;;;;13.51;84.73;97457.19;30001;983;1882;-57
2022/05/21 02:48:19;;;;;;;;;;;;;;;13.48;84.24;97452.34;30001;983;1877;-57
2022/05/21 02:48:50;;;;;;;;;;;;;;;13.46;84.32;97454.56;30001;982;1882;-57
2022/05/21 02:49:21;;;;;;;;;;;;;;;13.43;84.62;97453.22;30001;982;1864;-57
2022/05/21 02:49:52;;;;;;;;;;;;;;;13.42;84.40;97459.78;30001;982;1873;-57
2022/05/21 02:50:24;;;;;;;;;;;;;;;13.41;84.04;97458.97;30001;982;1878;-57
2022/05/21 02:50:55;;;;;;;;;;;;;;;13.42;84.54;97459.78;30001;982;1882;-58
2022/05/21 02:51:26;;;;;;;;;;;;;;;13.41;83.88;97455.44;30001;983;1877;-57
2022/05/21 02:51:57;;;;;;;;;;;;;;;13.40;84.16;97454.63;30001;983;1868;-57
2022/05/21 02:52:28;;;;;;;;;;;;;;;13.40;84.33;97451.91;30001;983;1868;-57
2022/05/21 02:53:00;;;;;;;;;;;;;;;13.41;84.44;97452.72;30001;983;1881;-57
2022/05/21 02:53:31;;;;;;;;;;;;;;;13.38;84.44;97450.59;30001;983;1877;-58
2022/05/21 02:54:03;;;;;;;;;;;;;;;13.36;84.79;97453.59;30001;983;1881;-57
2022/05/21 02:54:34;;;;;;;;;;;;;;;13.34;84.63;97455.81;30001;983;1877;-56
2022/05/21 02:55:05;;;;;;;;;;;;;;;13.34;84.79;97458.53;30001;983;1881;-57
2022/05/21 02:55:36;;;;;;;;;;;;;;;13.32;84.55;97455.31;30001;982;1877;-57
2022/05/21 02:56:08;;;;;;;;;;;;;;;13.29;85.12;97461.34;30001;982;1881;-58
2022/05/21 02:56:42;;;;;;;;;;;;;;;13.27;85.17;97463.56;30001;982;1864;-57
2022/05/21 02:57:14;;;;;;;;;;;;;;;13.28;85.18;97459.72;30001;982;1873;-57